createdAt,value
2018-09-01T00:00:57.904Z,1019.49
2018-09-01T00:01:57.940Z,1019.51
2018-09-01T00:02:57.884Z,1019.48
2018-09-01T00:03:57.897Z,1019.45
2018-09-01T00:04:57.881Z,1019.46
2018-09-01T00:05:57.886Z,1019.47
2018-09-01T00:06:57.917Z,1019.43
2018-09-01T00:07:57.914Z,1019.45
2018-09-01T00:08:57.906Z,1019.45
2018-09-01T00:09:57.932Z,1019.44
2018-09-01T00:10:57.891Z,1019.44
2018-09-01T00:11:57.906Z,1019.45
2018-09-01T00:12:57.915Z,1019.44
2018-09-01T00:13:57.902Z,1019.45
2018-09-01T00:14:57.908Z,1019.47
2018-09-01T00:15:57.911Z,1019.43
2018-09-01T00:16:57.919Z,1019.47
2018-09-01T00:17:57.931Z,1019.44
2018-09-01T00:18:57.914Z,1019.47
2018-09-01T00:19:57.938Z,1019.46
2018-09-01T00:20:57.938Z,1019.47
2018-09-01T00:21:57.911Z,1019.49
2018-09-01T00:22:57.916Z,1019.48
2018-09-01T00:23:57.934Z,1019.48
2018-09-01T00:24:57.930Z,1019.47
2018-09-01T00:25:57.965Z,1019.45
2018-09-01T00:26:57.928Z,1019.48
2018-09-01T00:27:57.940Z,1019.48
2018-09-01T00:28:57.930Z,1019.44
2018-09-01T00:29:57.932Z,1019.45
2018-09-01T00:30:57.926Z,1019.41
2018-09-01T00:31:57.973Z,1019.44
2018-09-01T00:32:57.936Z,1019.42
2018-09-01T00:33:57.952Z,1019.41
2018-09-01T00:34:57.943Z,1019.41
2018-09-01T00:35:57.970Z,1019.42
2018-09-01T00:36:58.441Z,1019.41
2018-09-01T00:37:57.969Z,1019.43
2018-09-01T00:38:57.953Z,1019.42
2018-09-01T00:39:57.988Z,1019.41
2018-09-01T00:40:57.967Z,1019.42
2018-09-01T00:41:57.954Z,1019.41
2018-09-01T00:42:57.963Z,1019.43
2018-09-01T00:43:57.958Z,1019.45
2018-09-01T00:44:57.957Z,1019.47
2018-09-01T00:45:57.962Z,1019.47
2018-09-01T00:46:57.967Z,1019.48
2018-09-01T00:47:57.985Z,1019.51
2018-09-01T00:48:57.967Z,1019.52
2018-09-01T00:49:58.452Z,1019.49
2018-09-01T00:50:58.012Z,1019.48
2018-09-01T00:51:57.964Z,1019.49
2018-09-01T00:52:58.013Z,1019.47
2018-09-01T00:53:57.986Z,1019.48
2018-09-01T00:54:57.997Z,1019.51
2018-09-01T00:55:57.981Z,1019.51
2018-09-01T00:56:57.973Z,1019.49
2018-09-01T00:57:57.988Z,1019.48
2018-09-01T00:58:57.984Z,1019.51
2018-09-01T00:59:57.989Z,1019.48
2018-09-01T01:00:57.993Z,1019.48
2018-09-01T01:01:58.455Z,1019.52
2018-09-01T01:02:58.128Z,1019.49
2018-09-01T01:03:58.083Z,1019.53
2018-09-01T01:04:58.027Z,1019.51
2018-09-01T01:05:58.004Z,1019.51
2018-09-01T01:06:57.996Z,1019.54
2018-09-01T01:07:57.991Z,1019.51
2018-09-01T01:08:57.994Z,1019.53
2018-09-01T01:09:58.015Z,1019.60
2018-09-01T01:10:57.985Z,1019.53
2018-09-01T01:11:57.988Z,1019.58
2018-09-01T01:12:57.995Z,1019.55
2018-09-01T01:13:58.023Z,1019.55
2018-09-01T01:14:58.048Z,1019.57
2018-09-01T01:15:58.004Z,1019.57
2018-09-01T01:16:58.010Z,1019.59
2018-09-01T01:17:58.012Z,1019.56
2018-09-01T01:20:30.785Z,1019.56
2018-09-01T01:21:30.778Z,1019.52
2018-09-01T01:22:30.579Z,1019.53
2018-09-01T01:23:31.100Z,1019.52
2018-09-01T01:24:31.100Z,1019.50
2018-09-01T01:25:30.589Z,1019.49
2018-09-01T01:26:30.640Z,1019.52
2018-09-01T01:27:30.596Z,1019.49
2018-09-01T01:28:30.617Z,1019.49
2018-09-01T01:29:30.605Z,1019.53
2018-09-01T01:30:30.609Z,1019.53
2018-09-01T01:31:30.595Z,1019.49
2018-09-01T01:32:30.600Z,1019.52
2018-09-01T01:33:30.638Z,1019.53
2018-09-01T01:34:30.620Z,1019.53
2018-09-01T01:35:30.645Z,1019.54
2018-09-01T01:36:30.628Z,1019.58
2018-09-01T01:37:30.604Z,1019.54
2018-09-01T01:38:30.611Z,1019.54
2018-09-01T01:39:32.207Z,1019.55
2018-09-01T01:40:30.605Z,1019.57
2018-09-01T01:41:30.686Z,1019.56
2018-09-01T01:42:30.612Z,1019.57
2018-09-01T01:43:30.624Z,1019.55
2018-09-01T01:44:30.652Z,1019.55
2018-09-01T01:45:30.628Z,1019.57
2018-09-01T01:46:30.635Z,1019.57
2018-09-01T02:10:58.792Z,1019.62
2018-09-01T02:11:36.911Z,1019.64
2018-09-01T02:12:22.228Z,1019.64
2018-09-01T02:13:22.209Z,1019.66
2018-09-01T02:14:22.214Z,1019.65
2018-09-01T02:15:22.214Z,1019.66
2018-09-01T02:16:22.205Z,1019.71
2018-09-01T02:17:22.212Z,1019.67
2018-09-01T02:18:22.220Z,1019.66
2018-09-01T02:19:22.233Z,1019.74
2018-09-01T02:20:22.226Z,1019.71
2018-09-01T02:21:22.227Z,1019.72
2018-09-01T02:22:22.230Z,1019.74
2018-09-01T02:23:22.237Z,1019.74
2018-09-01T02:24:22.241Z,1019.71
2018-09-01T02:25:22.228Z,1019.76
2018-09-01T02:26:22.233Z,1019.73
2018-09-01T02:27:22.278Z,1019.74
2018-09-01T02:28:22.237Z,1019.73
2018-09-01T02:29:22.236Z,1019.73
2018-09-01T02:30:22.246Z,1019.71
2018-09-01T02:31:22.240Z,1019.72
2018-09-01T02:32:22.251Z,1019.74
2018-09-01T02:33:22.249Z,1019.74
2018-09-01T02:34:22.238Z,1019.71
2018-09-01T02:35:22.251Z,1019.74
2018-09-01T02:36:22.272Z,1019.76
2018-09-01T02:37:22.251Z,1019.76
2018-09-01T02:38:23.037Z,1019.76
2018-09-01T02:39:22.249Z,1019.77
2018-09-01T02:40:22.341Z,1019.75
2018-09-01T02:41:22.436Z,1019.78
2018-09-01T02:42:22.281Z,1019.78
2018-09-01T02:43:22.253Z,1019.77
2018-09-01T02:44:22.264Z,1019.77
2018-09-01T02:45:22.256Z,1019.74
2018-09-01T02:46:22.284Z,1019.77
2018-09-01T02:47:22.271Z,1019.75
2018-09-01T02:48:22.249Z,1019.78
2018-09-01T02:49:22.277Z,1019.77
2018-09-01T02:50:22.264Z,1019.82
2018-09-01T02:51:22.278Z,1019.79
2018-09-01T02:52:22.274Z,1019.78
2018-09-01T02:53:22.297Z,1019.79
2018-09-01T02:54:22.282Z,1019.76
2018-09-01T02:55:22.288Z,1019.73
2018-09-01T02:56:22.280Z,1019.73
2018-09-01T02:57:22.275Z,1019.74
2018-09-01T02:58:22.281Z,1019.70
2018-09-01T02:59:22.303Z,1019.70
2018-09-01T03:00:22.277Z,1019.70
2018-09-01T03:01:22.270Z,1019.67
2018-09-01T03:02:22.287Z,1019.64
2018-09-01T03:03:22.290Z,1019.67
2018-09-01T03:04:22.284Z,1019.67
2018-09-01T03:05:22.285Z,1019.66
2018-09-01T03:06:22.297Z,1019.69
2018-09-01T03:07:22.293Z,1019.72
2018-09-01T03:08:22.311Z,1019.71
2018-09-01T03:09:22.291Z,1019.70
2018-09-01T03:10:22.338Z,1019.68
2018-09-01T03:11:22.303Z,1019.68
2018-09-01T03:12:22.314Z,1019.68
2018-09-01T03:13:22.302Z,1019.66
2018-09-01T03:14:22.303Z,1019.71
2018-09-01T03:15:22.319Z,1019.67
2018-09-01T03:16:22.294Z,1019.70
2018-09-01T03:17:22.335Z,1019.69
2018-09-01T03:18:22.320Z,1019.68
2018-09-01T03:19:23.046Z,1019.70
2018-09-01T03:20:22.311Z,1019.68
2018-09-01T03:21:22.333Z,1019.70
2018-09-01T03:22:22.314Z,1019.68
2018-09-01T03:23:22.313Z,1019.70
2018-09-01T03:24:22.322Z,1019.71
2018-09-01T03:25:22.316Z,1019.74
2018-09-01T03:26:22.337Z,1019.76
2018-09-01T03:27:22.357Z,1019.80
2018-09-01T03:28:22.335Z,1019.79
2018-09-01T03:29:22.345Z,1019.78
2018-09-01T03:30:22.333Z,1019.81
2018-09-01T03:31:22.351Z,1019.81
2018-09-01T03:32:22.473Z,1019.80
2018-09-01T03:33:22.333Z,1019.79
2018-09-01T03:34:22.417Z,1019.78
2018-09-01T03:35:22.358Z,1019.80
2018-09-01T03:36:22.349Z,1019.79
2018-09-01T03:37:22.325Z,1019.78
2018-09-01T03:38:22.346Z,1019.79
2018-09-01T03:39:22.352Z,1019.77
2018-09-01T03:40:22.344Z,1019.76
2018-09-01T03:41:22.359Z,1019.78
2018-09-01T03:42:22.352Z,1019.77
2018-09-01T03:43:22.354Z,1019.79
2018-09-01T03:44:22.406Z,1019.79
2018-09-01T03:45:22.542Z,1019.80
2018-09-01T03:46:22.370Z,1019.82
2018-09-01T03:47:22.351Z,1019.83
2018-09-01T03:48:22.344Z,1019.82
2018-09-01T03:49:22.387Z,1019.78
2018-09-01T03:50:22.360Z,1019.81
2018-09-01T03:51:22.358Z,1019.80
2018-09-01T03:52:22.406Z,1019.79
2018-09-01T03:53:22.382Z,1019.77
2018-09-01T03:54:22.394Z,1019.75
2018-09-01T03:55:22.343Z,1019.77
2018-09-01T03:56:22.353Z,1019.78
2018-09-01T03:57:22.389Z,1019.76
2018-09-01T03:58:22.351Z,1019.78
2018-09-01T03:59:22.348Z,1019.80
2018-09-01T04:00:22.362Z,1019.80
2018-09-01T04:01:22.373Z,1019.81
2018-09-01T04:02:22.375Z,1019.79
2018-09-01T04:03:22.498Z,1019.78
2018-09-01T04:04:22.393Z,1019.75
2018-09-01T04:05:22.392Z,1019.81
2018-09-01T04:06:22.384Z,1019.79
2018-09-01T04:07:22.393Z,1019.78
2018-09-01T04:08:22.434Z,1019.75
2018-09-01T04:09:22.374Z,1019.82
2018-09-01T04:10:22.372Z,1019.78
2018-09-01T04:11:22.374Z,1019.78
2018-09-01T04:12:22.370Z,1019.77
2018-09-01T04:13:22.388Z,1019.81
2018-09-01T04:14:22.369Z,1019.77
2018-09-01T04:15:22.385Z,1019.76
2018-09-01T04:16:22.492Z,1019.77
2018-09-01T04:17:22.391Z,1019.77
2018-09-01T04:18:22.396Z,1019.83
2018-09-01T04:19:22.404Z,1019.83
2018-09-01T04:20:22.391Z,1019.82
2018-09-01T04:21:22.424Z,1019.81
2018-09-01T04:22:22.413Z,1019.83
2018-09-01T04:23:22.424Z,1019.86
2018-09-01T04:24:22.409Z,1019.86
2018-09-01T04:25:22.406Z,1019.87
2018-09-01T04:26:22.411Z,1019.89
2018-09-01T04:27:22.394Z,1019.90
2018-09-01T04:28:22.395Z,1019.92
2018-09-01T04:29:22.460Z,1019.93
2018-09-01T04:30:22.394Z,1019.97
2018-09-01T04:31:22.403Z,1019.94
2018-09-01T04:32:22.408Z,1019.91
2018-09-01T04:33:22.416Z,1019.92
2018-09-01T04:34:22.407Z,1019.93
2018-09-01T04:35:22.408Z,1019.92
2018-09-01T04:36:22.411Z,1019.92
2018-09-01T04:37:22.425Z,1019.93
2018-09-01T04:38:22.439Z,1019.94
2018-09-01T04:39:22.438Z,1019.99
2018-09-01T04:40:22.573Z,1019.97
2018-09-01T04:41:22.536Z,1020.01
2018-09-01T04:42:22.478Z,1020.03
2018-09-01T04:43:22.437Z,1020.05
2018-09-01T04:44:22.408Z,1020.07
2018-09-01T04:45:22.420Z,1020.08
2018-09-01T04:46:22.416Z,1020.05
2018-09-01T04:47:22.475Z,1020.06
2018-09-01T04:48:22.465Z,1020.06
2018-09-01T04:49:22.424Z,1020.04
2018-09-01T04:50:22.423Z,1020.04
2018-09-01T04:51:22.462Z,1020.05
2018-09-01T04:52:22.416Z,1020.06
2018-09-01T04:53:22.427Z,1020.08
2018-09-01T04:54:22.461Z,1020.09
2018-09-01T04:55:22.437Z,1020.10
2018-09-01T04:56:22.473Z,1020.08
2018-09-01T04:57:22.432Z,1020.09
2018-09-01T04:58:22.440Z,1020.10
2018-09-01T04:59:22.470Z,1020.10
2018-09-01T05:00:22.495Z,1020.14
2018-09-01T05:01:22.469Z,1020.14
2018-09-01T05:02:22.432Z,1020.15
2018-09-01T05:03:22.442Z,1020.13
2018-09-01T05:04:22.446Z,1020.14
2018-09-01T05:05:22.438Z,1020.14
2018-09-01T05:06:22.446Z,1020.18
2018-09-01T05:07:22.441Z,1020.19
2018-09-01T05:08:22.449Z,1020.20
2018-09-01T05:09:22.443Z,1020.20
2018-09-01T05:10:22.482Z,1020.22
2018-09-01T05:11:22.445Z,1020.25
2018-09-01T05:12:22.445Z,1020.27
2018-09-01T05:13:22.456Z,1020.27
2018-09-01T05:14:22.451Z,1020.26
2018-09-01T05:15:22.461Z,1020.27
2018-09-01T05:16:22.472Z,1020.29
2018-09-01T05:17:22.498Z,1020.24
2018-09-01T05:18:22.457Z,1020.32
2018-09-01T05:19:22.504Z,1020.33
2018-09-01T05:20:22.483Z,1020.31
2018-09-01T05:21:22.459Z,1020.38
2018-09-01T05:22:22.462Z,1020.36
2018-09-01T05:23:22.638Z,1020.39
2018-09-01T05:24:22.485Z,1020.37
2018-09-01T05:25:22.458Z,1020.39
2018-09-01T05:26:22.466Z,1020.36
2018-09-01T05:27:22.469Z,1020.41
2018-09-01T05:28:22.468Z,1020.45
2018-09-01T05:29:22.469Z,1020.43
2018-09-01T05:30:22.488Z,1020.44
2018-09-01T05:31:22.478Z,1020.48
2018-09-01T05:32:22.483Z,1020.51
2018-09-01T05:33:22.475Z,1020.54
2018-09-01T05:34:22.488Z,1020.52
2018-09-01T05:35:22.472Z,1020.55
2018-09-01T05:36:22.590Z,1020.56
2018-09-01T05:37:22.466Z,1020.63
2018-09-01T05:38:22.475Z,1020.64
2018-09-01T05:39:22.492Z,1020.67
2018-09-01T05:40:22.486Z,1020.69
2018-09-01T05:41:22.598Z,1020.73
2018-09-01T05:42:22.548Z,1020.75
2018-09-01T05:43:22.501Z,1020.73
2018-09-01T05:44:22.490Z,1020.78
2018-09-01T05:45:22.496Z,1020.80
2018-09-01T05:46:22.502Z,1020.84
2018-09-01T05:47:22.513Z,1020.83
2018-09-01T05:48:22.515Z,1020.85
2018-09-01T05:49:22.507Z,1020.85
2018-09-01T05:50:22.503Z,1020.83
2018-09-01T05:51:22.522Z,1020.84
2018-09-01T05:52:22.533Z,1020.87
2018-09-01T05:53:22.523Z,1020.89
2018-09-01T05:54:22.508Z,1020.91
2018-09-01T05:55:22.496Z,1020.94
2018-09-01T05:56:22.501Z,1020.92
2018-09-01T05:57:22.522Z,1020.99
2018-09-01T05:58:22.511Z,1021.02
2018-09-01T05:59:22.519Z,1021.03
2018-09-01T06:00:22.528Z,1021.09
2018-09-01T06:01:22.522Z,1021.10
2018-09-01T06:02:22.512Z,1021.17
2018-09-01T06:03:22.520Z,1021.15
2018-09-01T06:04:22.518Z,1021.16
2018-09-01T06:05:22.539Z,1021.17
2018-09-01T06:06:22.613Z,1021.20
2018-09-01T06:07:22.618Z,1021.19
2018-09-01T06:08:22.542Z,1021.12
2018-09-01T06:09:22.546Z,1021.18
2018-09-01T06:10:22.542Z,1021.23
2018-09-01T06:11:22.535Z,1021.28
2018-09-01T06:12:22.565Z,1021.27
2018-09-01T06:13:22.545Z,1021.29
2018-09-01T06:14:22.669Z,1021.30
2018-09-01T06:15:22.543Z,1021.29
2018-09-01T06:16:22.549Z,1021.34
2018-09-01T06:17:22.582Z,1021.32
2018-09-01T06:18:22.560Z,1021.31
2018-09-01T06:19:22.615Z,1021.35
2018-09-01T06:20:22.581Z,1021.33
2018-09-01T06:21:22.570Z,1021.37
2018-09-01T06:22:22.582Z,1021.37
2018-09-01T06:23:22.576Z,1021.39
2018-09-01T06:24:22.577Z,1021.46
2018-09-01T06:25:22.599Z,1021.46
2018-09-01T06:26:22.589Z,1021.48
2018-09-01T06:27:22.610Z,1021.49
2018-09-01T06:28:22.623Z,1021.50
2018-09-01T06:29:22.606Z,1021.54
2018-09-01T06:30:22.598Z,1021.50
2018-09-01T06:31:22.601Z,1021.47
2018-09-01T06:32:22.603Z,1021.51
2018-09-01T06:33:22.608Z,1021.50
2018-09-01T06:34:22.613Z,1021.57
2018-09-01T06:35:22.672Z,1021.58
2018-09-01T06:36:22.612Z,1021.57
2018-09-01T06:37:22.620Z,1021.57
2018-09-01T06:38:22.654Z,1021.56
2018-09-01T06:39:22.614Z,1021.63
2018-09-01T06:40:22.627Z,1021.62
2018-09-01T06:41:22.665Z,1021.64
2018-09-01T06:42:22.636Z,1021.65
2018-09-01T06:43:22.637Z,1021.65
2018-09-01T06:44:22.640Z,1021.74
2018-09-01T06:45:22.724Z,1021.71
2018-09-01T06:46:22.679Z,1021.77
2018-09-01T06:47:22.654Z,1021.75
2018-09-01T06:48:23.635Z,1021.76
2018-09-01T06:49:22.663Z,1021.81
2018-09-01T06:50:22.707Z,1021.76
2018-09-01T06:51:22.685Z,1021.78
2018-09-01T06:52:22.689Z,1021.77
2018-09-01T06:53:22.694Z,1021.81
2018-09-01T06:54:22.696Z,1021.84
2018-09-01T06:55:22.695Z,1021.85
2018-09-01T06:56:22.715Z,1021.90
2018-09-01T06:57:22.764Z,1021.89
2018-09-01T06:58:23.624Z,1021.90
2018-09-01T06:59:22.735Z,1021.95
2018-09-01T07:00:22.769Z,1021.94
2018-09-01T07:01:22.772Z,1021.97
2018-09-01T07:02:22.777Z,1021.94
2018-09-01T07:03:22.754Z,1021.92
2018-09-01T07:04:22.778Z,1022.00
2018-09-01T07:05:22.770Z,1022.06
2018-09-01T07:06:22.765Z,1022.07
2018-09-01T07:07:22.788Z,1022.01
2018-09-01T07:08:22.829Z,1022.05
2018-09-01T07:09:22.819Z,1022.05
2018-09-01T07:10:22.793Z,1022.04
2018-09-01T07:11:22.904Z,1022.05
2018-09-01T07:12:22.811Z,1022.08
2018-09-01T07:13:22.802Z,1022.06
2018-09-01T07:14:22.814Z,1022.08
2018-09-01T07:15:22.838Z,1022.06
2018-09-01T07:16:22.841Z,1022.10
2018-09-01T07:17:22.865Z,1022.10
2018-09-01T07:18:22.852Z,1022.14
2018-09-01T07:19:22.880Z,1022.12
2018-09-01T07:20:22.907Z,1022.13
2018-09-01T07:21:22.884Z,1022.14
2018-09-01T07:22:22.933Z,1022.18
2018-09-01T07:23:22.907Z,1022.21
2018-09-01T07:24:22.885Z,1022.22
2018-09-01T07:25:22.903Z,1022.23
2018-09-01T07:26:22.932Z,1022.28
2018-09-01T07:27:22.922Z,1022.27
2018-09-01T07:28:22.923Z,1022.30
2018-09-01T07:29:23.026Z,1022.32
2018-09-01T07:30:23.044Z,1022.33
2018-09-01T07:31:23.392Z,1022.31
2018-09-01T07:32:22.968Z,1022.33
2018-09-01T07:33:22.968Z,1022.35
2018-09-01T07:34:22.977Z,1022.35
2018-09-01T07:35:22.994Z,1022.44
2018-09-01T07:36:22.986Z,1022.44
2018-09-01T07:37:23.018Z,1022.51
2018-09-01T07:38:23.015Z,1022.54
2018-09-01T07:39:23.053Z,1022.55
2018-09-01T07:40:23.053Z,1022.57
2018-09-01T07:41:23.049Z,1022.56
2018-09-01T07:42:23.052Z,1022.63
2018-09-01T07:43:23.038Z,1022.66
2018-09-01T07:44:23.057Z,1022.68
2018-09-01T07:45:23.065Z,1022.74
2018-09-01T07:46:23.067Z,1022.76
2018-09-01T07:47:23.080Z,1022.77
2018-09-01T07:48:23.089Z,1022.77
2018-09-01T07:49:23.191Z,1022.80
2018-09-01T07:50:23.105Z,1022.87
2018-09-01T07:51:23.122Z,1022.89
2018-09-01T07:52:23.127Z,1022.93
2018-09-01T07:53:23.137Z,1023.00
2018-09-01T07:54:23.207Z,1023.02
2018-09-01T07:55:23.153Z,1023.01
2018-09-01T07:56:23.195Z,1023.09
2018-09-01T07:57:23.183Z,1023.11
2018-09-01T07:58:23.216Z,1023.14
2018-09-01T07:59:23.329Z,1023.17
2018-09-01T08:00:23.204Z,1023.26
2018-09-01T08:01:23.213Z,1023.34
2018-09-01T08:02:23.242Z,1023.33
2018-09-01T08:03:23.254Z,1023.42
2018-09-01T08:04:23.301Z,1023.51
2018-09-01T08:05:23.272Z,1023.56
2018-09-01T08:06:23.316Z,1023.61
2018-09-01T08:07:23.370Z,1023.66
2018-09-01T08:08:23.317Z,1023.70
2018-09-01T08:09:23.304Z,1023.76
2018-09-01T08:10:23.322Z,1023.81
2018-09-01T08:11:23.343Z,1023.87
2018-09-01T08:12:23.346Z,1023.94
2018-09-01T08:13:23.380Z,1023.91
2018-09-01T08:14:24.194Z,1023.96
2018-09-01T08:15:23.396Z,1024.03
2018-09-01T08:16:23.401Z,1024.07
2018-09-01T08:17:23.407Z,1024.15
2018-09-01T08:18:23.416Z,1024.23
2018-09-01T08:19:23.446Z,1024.24
2018-09-01T08:20:23.436Z,1024.34
2018-09-01T08:21:23.437Z,1024.43
2018-09-01T08:22:23.470Z,1024.45
2018-09-01T08:23:23.472Z,1024.48
2018-09-01T08:24:23.574Z,1024.49
2018-09-01T08:25:23.515Z,1024.50
2018-09-01T08:26:23.531Z,1024.64
2018-09-01T08:27:23.602Z,1024.66
2018-09-01T08:28:23.565Z,1024.74
2018-09-01T08:29:23.556Z,1024.83
2018-09-01T08:30:23.621Z,1024.84
2018-09-01T08:31:23.600Z,1024.90
2018-09-01T08:32:23.637Z,1025.04
2018-09-01T08:33:23.604Z,1025.11
2018-09-01T08:34:23.608Z,1025.23
2018-09-01T08:35:23.614Z,1025.45
2018-09-01T08:36:23.658Z,1025.70
2018-09-01T08:37:23.661Z,1026.29
2018-09-01T08:38:23.720Z,1027.32
2018-09-01T08:39:23.707Z,1028.60
2018-09-01T08:40:23.689Z,1030.17
2018-09-01T08:41:23.698Z,1022.52
2018-09-01T08:42:23.719Z,1027.94
2018-09-01T08:43:23.713Z,1032.84
2018-09-01T08:44:23.736Z,1023.61
2018-09-01T08:45:23.750Z,1029.63
2018-09-01T08:46:23.768Z,1031.24
2018-09-01T08:47:23.834Z,1030.32
2018-09-01T08:48:23.790Z,1028.78
2018-09-01T08:49:23.782Z,1030.60
2018-09-01T08:50:23.840Z,1030.65
2018-09-01T08:51:23.843Z,1028.38
2018-09-01T08:52:23.853Z,1024.65
2018-09-01T08:53:23.863Z,1025.38
2018-09-01T08:54:23.861Z,1024.90
2018-09-01T08:55:23.869Z,1024.91
2018-09-01T08:56:23.897Z,1024.62
2018-09-01T08:57:23.911Z,1024.38
2018-09-01T08:58:23.934Z,1024.31
2018-09-01T08:59:23.965Z,1024.29
2018-09-01T09:00:23.963Z,1024.23
2018-09-01T09:01:23.997Z,1024.16
2018-09-01T09:02:23.993Z,1024.15
2018-09-01T09:03:23.975Z,1024.09
2018-09-01T09:04:24.013Z,1022.63
2018-09-01T09:05:24.069Z,1024.01
2018-09-01T09:06:24.018Z,1024.07
2018-09-01T09:07:24.027Z,1024.10
2018-09-01T09:08:24.042Z,1022.67
2018-09-01T09:09:24.068Z,1022.69
2018-09-01T09:10:24.085Z,1022.72
2018-09-01T09:11:24.304Z,1023.76
2018-09-01T09:12:24.154Z,1023.86
2018-09-01T09:13:24.123Z,1023.98
2018-09-01T09:14:24.161Z,1024.07
2018-09-01T09:15:24.153Z,1024.12
2018-09-01T09:16:24.170Z,1023.83
2018-09-01T09:17:24.195Z,1024.25
2018-09-01T09:18:26.803Z,1023.91
2018-09-01T09:19:24.209Z,1022.56
2018-09-01T09:20:24.220Z,1025.64
2018-09-01T09:21:24.217Z,1026.81
2018-09-01T09:22:24.243Z,1026.72
2018-09-01T09:23:24.274Z,1025.91
2018-09-01T09:24:24.267Z,1025.51
2018-09-01T09:25:24.284Z,1025.25
2018-09-01T09:26:24.289Z,1024.78
2018-09-01T09:27:24.299Z,1024.58
2018-09-01T09:28:24.367Z,1024.00
2018-09-01T09:29:24.327Z,1023.89
2018-09-01T09:30:24.401Z,1023.98
2018-09-01T09:31:24.380Z,1023.94
2018-09-01T09:32:24.429Z,1023.99
2018-09-01T09:33:24.437Z,1024.01
2018-09-01T09:34:24.462Z,1023.98
2018-09-01T09:35:24.430Z,1024.20
2018-09-01T09:36:24.414Z,1024.28
2018-09-01T09:37:24.456Z,1024.34
2018-09-01T09:38:24.457Z,1024.16
2018-09-01T09:39:24.473Z,1022.71
2018-09-01T09:40:24.487Z,1022.66
2018-09-01T09:41:24.497Z,1022.73
2018-09-01T09:42:24.513Z,1025.48
2018-09-01T09:43:24.551Z,1025.73
2018-09-01T09:44:24.581Z,1026.18
2018-09-01T09:45:24.538Z,1026.40
2018-09-01T09:46:24.557Z,1027.42
2018-09-01T09:47:24.597Z,1027.96
2018-09-01T09:48:24.635Z,1027.83
2018-09-01T09:49:24.599Z,1028.31
2018-09-01T09:50:24.613Z,1028.93
2018-09-01T09:51:24.631Z,1029.71
2018-09-01T09:52:24.703Z,1029.90
2018-09-01T09:53:24.673Z,1029.44
2018-09-01T09:54:24.765Z,1028.63
2018-09-01T09:55:24.722Z,1030.06
2018-09-01T09:56:24.723Z,1030.20
2018-09-01T09:57:24.755Z,1023.17
2018-09-01T09:58:24.801Z,1026.10
2018-09-01T09:59:24.755Z,1031.98
2018-09-01T10:00:24.763Z,1022.80
2018-09-01T10:01:24.837Z,1022.75
2018-09-01T10:02:24.815Z,1022.73
2018-09-01T10:03:24.857Z,1024.02
2018-09-01T10:04:25.747Z,1027.13
2018-09-01T10:05:24.905Z,1022.87
2018-09-01T10:06:24.865Z,1022.93
2018-09-01T10:07:24.882Z,1025.03
2018-09-01T10:08:24.898Z,1024.64
2018-09-01T10:09:24.901Z,1022.93
2018-09-01T10:10:24.927Z,1022.83
2018-09-01T10:11:24.930Z,1024.01
2018-09-01T10:12:24.949Z,1023.91
2018-09-01T10:13:24.949Z,1023.72
2018-09-01T10:14:24.964Z,1023.77
2018-09-01T10:15:24.974Z,1023.83
2018-09-01T10:16:25.047Z,1023.89
2018-09-01T10:17:25.009Z,1023.17
2018-09-01T10:18:25.032Z,1023.07
2018-09-01T10:19:25.053Z,1023.04
2018-09-01T10:20:25.109Z,1022.59
2018-09-01T10:21:25.065Z,1022.53
2018-09-01T10:22:25.091Z,1023.13
2018-09-01T10:23:25.122Z,1022.43
2018-09-01T10:24:25.110Z,1022.43
2018-09-01T10:25:25.165Z,1022.43
2018-09-01T10:26:25.168Z,1022.42
2018-09-01T10:27:25.214Z,1022.50
2018-09-01T10:28:25.188Z,1022.48
2018-09-01T10:29:25.196Z,1022.54
2018-09-01T10:30:25.198Z,1022.65
2018-09-01T10:31:25.205Z,1022.97
2018-09-01T10:32:25.214Z,1022.95
2018-09-01T10:33:25.241Z,1022.93
2018-09-01T10:34:25.237Z,1022.91
2018-09-01T10:35:25.250Z,1023.01
2018-09-01T10:36:25.314Z,1023.13
2018-09-01T10:37:25.289Z,1023.11
2018-09-01T10:38:25.419Z,1023.16
2018-09-01T10:39:25.296Z,1023.20
2018-09-01T10:40:25.324Z,1022.81
2018-09-01T10:41:25.400Z,1022.56
2018-09-01T10:42:25.323Z,1022.70
2018-09-01T10:43:25.339Z,1022.60
2018-09-01T10:44:25.464Z,1022.49
2018-09-01T10:45:25.361Z,1022.43
2018-09-01T10:46:25.375Z,1022.43
2018-09-01T10:47:25.395Z,1022.44
2018-09-01T10:48:25.464Z,1022.43
2018-09-01T10:49:25.412Z,1022.39
2018-09-01T10:50:25.422Z,1022.37
2018-09-01T10:51:25.762Z,1022.40
2018-09-01T10:52:25.490Z,1022.35
2018-09-01T10:53:25.478Z,1022.34
2018-09-01T10:54:25.488Z,1022.33
2018-09-01T10:55:25.585Z,1022.25
2018-09-01T10:56:25.493Z,1022.32
2018-09-01T10:57:25.522Z,1022.24
2018-09-01T10:58:25.584Z,1022.25
2018-09-01T10:59:25.586Z,1022.30
2018-09-01T11:00:25.526Z,1022.32
2018-09-01T11:01:25.559Z,1022.22
2018-09-01T11:02:25.575Z,1022.21
2018-09-01T11:03:25.587Z,1022.15
2018-09-01T11:04:25.560Z,1022.16
2018-09-01T11:05:25.735Z,1022.13
2018-09-01T11:06:25.892Z,1022.15
2018-09-01T11:07:25.581Z,1022.20
2018-09-01T11:08:25.843Z,1022.36
2018-09-01T11:09:25.631Z,1022.28
2018-09-01T11:10:25.651Z,1022.22
2018-09-01T11:11:25.635Z,1022.15
2018-09-01T11:12:25.622Z,1022.12
2018-09-01T11:13:25.645Z,1022.08
2018-09-01T11:14:25.656Z,1022.10
2018-09-01T11:15:25.665Z,1022.03
2018-09-01T11:16:25.659Z,1022.08
2018-09-01T11:17:25.673Z,1022.10
2018-09-01T11:18:25.682Z,1022.15
2018-09-01T11:19:25.691Z,1022.12
2018-09-01T11:20:25.729Z,1022.15
2018-09-01T11:21:25.714Z,1022.11
2018-09-01T11:22:25.711Z,1022.15
2018-09-01T11:23:25.722Z,1022.10
2018-09-01T11:24:25.731Z,1022.12
2018-09-01T11:25:25.736Z,1022.13
2018-09-01T11:26:25.784Z,1022.12
2018-09-01T11:27:25.753Z,1022.12
2018-09-01T11:28:25.790Z,1022.16
2018-09-01T11:29:25.792Z,1022.12
2018-09-01T11:30:25.779Z,1022.10
2018-09-01T11:31:25.788Z,1022.18
2018-09-01T11:32:25.784Z,1022.12
2018-09-01T11:33:25.805Z,1022.02
2018-09-01T11:34:25.824Z,1022.10
2018-09-01T11:35:25.831Z,1022.13
2018-09-01T11:36:25.889Z,1022.15
2018-09-01T11:37:25.819Z,1022.15
2018-09-01T11:38:25.830Z,1022.14
2018-09-01T11:39:25.838Z,1022.12
2018-09-01T11:40:25.960Z,1022.06
2018-09-01T11:41:25.843Z,1022.02
2018-09-01T11:42:25.920Z,1021.97
2018-09-01T11:43:25.863Z,1022.03
2018-09-01T11:44:25.867Z,1021.93
2018-09-01T11:45:25.880Z,1021.97
2018-09-01T11:46:25.880Z,1021.92
2018-09-01T11:47:25.892Z,1021.89
2018-09-01T11:48:25.929Z,1021.89
2018-09-01T11:49:25.898Z,1021.95
2018-09-01T11:50:25.917Z,1021.98
2018-09-01T11:51:25.927Z,1021.99
2018-09-01T11:52:25.942Z,1021.98
2018-09-01T11:53:26.815Z,1021.97
2018-09-01T11:54:25.925Z,1022.07
2018-09-01T11:55:26.002Z,1022.02
2018-09-01T11:56:25.955Z,1022.06
2018-09-01T11:57:25.960Z,1022.06
2018-09-01T11:58:25.959Z,1022.08
2018-09-01T11:59:25.999Z,1022.10
2018-09-01T12:00:25.977Z,1022.11
2018-09-01T12:01:25.988Z,1022.11
2018-09-01T12:02:26.005Z,1022.11
2018-09-01T12:03:26.094Z,1022.13
2018-09-01T12:04:25.984Z,1022.11
2018-09-01T12:05:26.001Z,1022.13
2018-09-01T12:06:26.012Z,1022.15
2018-09-01T12:07:26.024Z,1022.16
2018-09-01T12:08:26.029Z,1022.13
2018-09-01T12:09:26.118Z,1022.09
2018-09-01T12:10:26.044Z,1022.02
2018-09-01T12:11:26.033Z,1021.99
2018-09-01T12:12:26.034Z,1021.97
2018-09-01T12:13:26.068Z,1021.90
2018-09-01T12:14:26.067Z,1021.87
2018-09-01T12:15:26.114Z,1021.83
2018-09-01T12:16:26.133Z,1021.85
2018-09-01T12:17:26.066Z,1021.82
2018-09-01T12:18:26.052Z,1021.78
2018-09-01T12:19:26.104Z,1021.80
2018-09-01T12:20:26.081Z,1021.72
2018-09-01T12:21:26.090Z,1021.78
2018-09-01T12:22:26.209Z,1021.70
2018-09-01T12:23:26.105Z,1021.71
2018-09-01T12:24:26.091Z,1021.72
2018-09-01T12:25:26.106Z,1021.68
2018-09-01T12:26:26.151Z,1021.68
2018-09-01T12:27:26.119Z,1021.68
2018-09-01T12:28:26.133Z,1021.64
2018-09-01T12:29:26.111Z,1021.66
2018-09-01T12:30:26.129Z,1021.64